createdAt,value
2018-10-03T00:00:31.970Z,9.43
2018-10-03T00:03:01.077Z,9.43
2018-10-03T00:05:30.042Z,9.32
2018-10-03T00:07:59.083Z,9.29
2018-10-03T00:10:28.331Z,9.35
2018-10-03T00:12:57.607Z,9.43
2018-10-03T00:15:26.871Z,9.41
2018-10-03T00:17:55.945Z,9.32
2018-10-03T00:20:25.585Z,9.16
2018-10-03T00:22:54.739Z,9.02
2018-10-03T00:25:23.742Z,9.10
2018-10-03T00:27:52.876Z,8.97
2018-10-03T00:30:21.876Z,8.83
2018-10-03T00:32:50.817Z,8.98
2018-10-03T00:35:19.782Z,9.25
2018-10-03T00:37:48.839Z,9.45
2018-10-03T00:40:17.824Z,9.19
2018-10-03T00:42:46.889Z,9.05
2018-10-03T00:45:15.961Z,8.84
2018-10-03T00:47:45.068Z,8.97
2018-10-03T00:50:14.546Z,9.05
2018-10-03T00:52:43.486Z,8.92
2018-10-03T00:55:12.552Z,8.92
2018-10-03T00:57:41.850Z,9.42
2018-10-03T01:00:10.861Z,9.55
2018-10-03T01:02:39.994Z,9.68
2018-10-03T01:05:09.090Z,9.79
2018-10-03T01:07:38.878Z,9.85
2018-10-03T01:10:07.857Z,9.90
2018-10-03T01:12:36.869Z,10.01
2018-10-03T01:15:06.306Z,9.98
2018-10-03T01:17:35.227Z,10.07
2018-10-03T01:20:04.326Z,10.04
2018-10-03T01:22:33.300Z,10.09
2018-10-03T01:25:02.423Z,10.10
2018-10-03T01:27:31.638Z,10.07
2018-10-03T01:30:01.814Z,10.08
2018-10-03T01:32:31.253Z,10.16
2018-10-03T01:35:00.631Z,10.08
2018-10-03T01:37:29.947Z,10.11
2018-10-03T01:39:59.227Z,10.05
2018-10-03T01:42:28.522Z,10.14
2018-10-03T01:44:57.961Z,10.02
2018-10-03T01:47:27.150Z,9.93
2018-10-03T01:49:56.191Z,9.82
2018-10-03T01:52:25.250Z,10.10
2018-10-03T01:54:54.376Z,10.05
2018-10-03T01:57:23.456Z,9.48
2018-10-03T01:59:52.451Z,9.29
2018-10-03T02:02:21.458Z,9.18
2018-10-03T02:04:50.400Z,9.31
2018-10-03T02:07:19.452Z,9.03
2018-10-03T02:09:48.506Z,9.13
2018-10-03T02:12:17.532Z,9.01
2018-10-03T02:14:46.572Z,9.15
2018-10-03T02:17:15.742Z,9.34
2018-10-03T02:19:44.766Z,9.82
2018-10-03T02:22:13.733Z,9.78
2018-10-03T02:24:42.769Z,9.87
2018-10-03T02:27:11.705Z,9.46
2018-10-03T02:29:40.815Z,9.43
2018-10-03T02:32:09.913Z,9.85
2018-10-03T02:34:38.869Z,9.32
2018-10-03T02:37:08.313Z,9.66
2018-10-03T02:39:37.700Z,9.48
2018-10-03T02:42:07.036Z,9.25
2018-10-03T02:44:36.189Z,9.14
2018-10-03T02:47:05.507Z,8.93
2018-10-03T02:49:34.474Z,8.82
2018-10-03T02:52:03.489Z,8.78
2018-10-03T02:54:32.668Z,8.85
2018-10-03T02:57:01.714Z,8.55
2018-10-03T02:59:30.785Z,8.56
2018-10-03T03:01:59.841Z,8.45
2018-10-03T03:04:28.912Z,8.45
2018-10-03T03:06:57.926Z,8.52
2018-10-03T03:09:26.971Z,8.54
2018-10-03T03:11:56.056Z,8.60
2018-10-03T03:14:25.127Z,8.58
2018-10-03T03:16:54.154Z,8.74
2018-10-03T03:19:23.166Z,8.77
2018-10-03T03:21:52.153Z,8.63
2018-10-03T03:24:21.171Z,8.67
2018-10-03T03:26:50.136Z,8.71
2018-10-03T03:29:19.152Z,8.77
2018-10-03T03:31:48.196Z,8.76
2018-10-03T03:34:17.225Z,8.73
2018-10-03T03:36:46.254Z,8.72
2018-10-03T03:39:15.409Z,8.94
2018-10-03T03:41:45.466Z,8.96
2018-10-03T03:44:14.622Z,8.92
2018-10-03T03:46:43.649Z,8.88
2018-10-03T03:49:12.672Z,8.93
2018-10-03T03:51:41.692Z,8.89
2018-10-03T03:54:10.704Z,8.83
2018-10-03T03:56:39.743Z,8.71
2018-10-03T03:59:08.708Z,8.62
2018-10-03T04:01:37.756Z,8.66
2018-10-03T04:04:06.867Z,8.64
2018-10-03T04:06:35.881Z,8.67
2018-10-03T04:09:05.999Z,8.70
2018-10-03T04:11:35.041Z,8.74
2018-10-03T04:14:04.173Z,8.76
2018-10-03T04:16:33.295Z,8.74
2018-10-03T04:19:03.206Z,8.21
2018-10-03T04:21:39.541Z,8.75
2018-10-03T04:24:09.790Z,8.76
2018-10-03T04:26:39.829Z,8.80
2018-10-03T04:29:09.001Z,8.76
2018-10-03T04:31:38.348Z,8.79
2018-10-03T04:34:07.466Z,8.72
2018-10-03T04:36:36.717Z,8.88
2018-10-03T04:39:07.699Z,8.71
2018-10-03T04:41:37.431Z,8.77
2018-10-03T04:44:06.429Z,8.77
2018-10-03T04:46:35.508Z,9.27
2018-10-03T04:49:04.603Z,9.59
2018-10-03T04:51:33.659Z,9.72
2018-10-03T04:54:02.687Z,9.90
2018-10-03T04:56:31.757Z,9.75
2018-10-03T04:59:00.989Z,9.81
2018-10-03T05:01:30.037Z,9.63
2018-10-03T05:03:59.172Z,9.48
2018-10-03T05:06:28.162Z,9.49
2018-10-03T05:08:57.312Z,9.74
2018-10-03T05:11:26.499Z,9.77
2018-10-03T05:13:55.511Z,9.81
2018-10-03T05:16:24.678Z,9.79
2018-10-03T05:18:53.630Z,9.58
2018-10-03T05:21:22.603Z,9.37
2018-10-03T05:23:51.628Z,9.22
2018-10-03T05:26:20.606Z,9.20
2018-10-03T05:28:49.646Z,9.19
2018-10-03T05:31:18.634Z,9.36
2018-10-03T05:33:47.778Z,9.49
2018-10-03T05:36:17.146Z,9.52
2018-10-03T05:38:46.493Z,9.44
2018-10-03T05:41:15.519Z,9.42
2018-10-03T05:43:44.570Z,9.30
2018-10-03T05:46:13.605Z,9.31
2018-10-03T05:48:42.803Z,9.24
2018-10-03T05:51:11.808Z,9.35
2018-10-03T05:53:40.924Z,9.42
2018-10-03T05:56:10.094Z,9.35
2018-10-03T05:58:39.503Z,9.45
2018-10-03T06:01:09.037Z,9.45
2018-10-03T06:03:38.133Z,9.53
2018-10-03T06:06:07.793Z,9.84
2018-10-03T06:08:37.155Z,9.98
2018-10-03T06:11:06.987Z,10.14
2018-10-03T06:13:35.960Z,10.02
2018-10-03T06:16:05.599Z,10.02
2018-10-03T06:18:35.015Z,10.07
2018-10-03T06:21:04.357Z,10.28
2018-10-03T06:23:33.666Z,10.32
2018-10-03T06:26:03.117Z,10.39
2018-10-03T06:28:32.413Z,10.39
2018-10-03T06:31:01.587Z,10.39
2018-10-03T06:33:30.669Z,10.56
2018-10-03T06:36:01.203Z,10.62
2018-10-03T06:38:30.522Z,10.58
2018-10-03T06:40:59.847Z,10.54
2018-10-03T06:43:29.267Z,10.72
2018-10-03T06:45:58.519Z,10.81
2018-10-03T06:48:27.624Z,10.73
2018-10-03T06:50:56.789Z,10.90
2018-10-03T06:53:26.347Z,10.94
2018-10-03T06:55:56.922Z,10.76
2018-10-03T06:58:25.920Z,10.74
2018-10-03T07:00:54.926Z,10.71
2018-10-03T07:03:24.067Z,10.60
2018-10-03T07:05:53.194Z,10.64
2018-10-03T07:08:22.253Z,10.81
2018-10-03T07:10:51.744Z,10.61
2018-10-03T07:13:20.849Z,10.56
2018-10-03T07:15:50.287Z,10.53
2018-10-03T07:18:19.346Z,10.56
2018-10-03T07:20:48.495Z,10.85
2018-10-03T07:23:17.571Z,11.09
2018-10-03T07:25:46.628Z,10.98
2018-10-03T07:28:16.303Z,10.84
2018-10-03T07:30:45.395Z,10.95
2018-10-03T07:33:14.451Z,11.35
2018-10-03T07:35:43.646Z,11.57
2018-10-03T07:38:12.968Z,11.53
2018-10-03T07:40:42.003Z,11.34
2018-10-03T07:43:10.991Z,11.15
2018-10-03T07:45:40.085Z,11.14
2018-10-03T07:48:09.223Z,11.19
2018-10-03T07:50:38.143Z,11.38
2018-10-03T07:53:07.444Z,11.54
2018-10-03T07:55:36.469Z,11.69
2018-10-03T07:58:05.745Z,11.55
2018-10-03T08:00:34.821Z,11.52
2018-10-03T08:03:04.162Z,11.53
2018-10-03T08:05:33.243Z,11.74
2018-10-03T08:08:02.230Z,11.71
2018-10-03T08:10:31.298Z,11.84
2018-10-03T08:13:00.337Z,11.95
2018-10-03T08:15:29.786Z,11.79
2018-10-03T08:17:58.780Z,11.82
2018-10-03T08:20:28.012Z,11.99
2018-10-03T08:22:57.188Z,12.05
2018-10-03T08:25:26.197Z,12.16
2018-10-03T08:27:55.706Z,12.08
2018-10-03T08:30:24.668Z,12.17
2018-10-03T08:32:53.984Z,12.16
2018-10-03T08:35:23.127Z,12.07
2018-10-03T08:37:52.528Z,11.84
2018-10-03T08:40:21.523Z,11.73
2018-10-03T08:42:50.577Z,11.72
2018-10-03T08:45:19.681Z,11.76
2018-10-03T08:47:48.690Z,11.66
2018-10-03T08:50:17.750Z,11.81
2018-10-03T08:52:46.752Z,11.89
2018-10-03T08:55:15.829Z,12.05
2018-10-03T08:57:44.918Z,12.12
2018-10-03T09:00:14.187Z,12.13
2018-10-03T09:02:43.346Z,12.24
2018-10-03T09:05:13.211Z,12.22
2018-10-03T09:07:42.441Z,12.28
2018-10-03T09:10:11.552Z,12.25
2018-10-03T09:12:40.751Z,12.45
2018-10-03T09:15:10.091Z,12.24
2018-10-03T09:17:39.218Z,12.19
2018-10-03T09:20:08.524Z,12.34
2018-10-03T09:22:37.617Z,12.40
2018-10-03T09:25:06.601Z,12.47
2018-10-03T09:27:35.675Z,12.51
2018-10-03T09:30:05.563Z,12.73
2018-10-03T09:32:34.670Z,12.75
2018-10-03T09:35:04.448Z,12.77
2018-10-03T09:37:33.500Z,12.92
2018-10-03T09:40:02.580Z,12.71
2018-10-03T09:42:32.024Z,12.70
2018-10-03T09:45:01.131Z,12.91
2018-10-03T09:47:30.181Z,12.91
2018-10-03T09:49:59.292Z,13.00
2018-10-03T09:52:29.243Z,12.88
2018-10-03T09:54:58.431Z,12.95
2018-10-03T09:57:27.405Z,13.03
2018-10-03T09:59:56.465Z,13.11
2018-10-03T10:02:25.754Z,13.18
2018-10-03T10:04:54.829Z,13.22
2018-10-03T10:07:23.891Z,13.13
2018-10-03T10:09:52.997Z,13.23
2018-10-03T10:12:21.997Z,13.30
2018-10-03T10:14:51.119Z,13.19
2018-10-03T10:17:20.126Z,13.35
2018-10-03T10:19:49.195Z,13.11
2018-10-03T10:22:18.263Z,13.07
2018-10-03T10:24:47.290Z,13.59
2018-10-03T10:27:16.424Z,13.56
2018-10-03T10:29:45.638Z,13.83
2018-10-03T10:32:14.740Z,13.72
2018-10-03T10:34:43.756Z,13.92
2018-10-03T10:37:12.777Z,13.90
2018-10-03T10:39:41.835Z,14.23
2018-10-03T10:42:10.928Z,14.16
2018-10-03T10:44:40.027Z,14.28
2018-10-03T10:47:09.058Z,14.28
2018-10-03T10:49:38.055Z,14.33
2018-10-03T10:52:07.197Z,14.16
2018-10-03T10:54:36.162Z,14.44
2018-10-03T10:57:05.327Z,14.24
2018-10-03T10:59:34.339Z,14.32
2018-10-03T11:02:03.341Z,14.14
2018-10-03T11:04:32.525Z,14.17
2018-10-03T11:07:01.564Z,14.14
2018-10-03T11:09:30.900Z,14.23
2018-10-03T11:12:00.150Z,14.23
2018-10-03T11:14:29.154Z,14.19
2018-10-03T11:16:58.204Z,14.02
2018-10-03T11:19:27.195Z,14.14
2018-10-03T11:21:56.214Z,13.79
2018-10-03T11:24:25.474Z,13.30
2018-10-03T11:26:54.614Z,13.29
2018-10-03T11:29:24.868Z,13.25
2018-10-03T11:31:54.058Z,13.40
2018-10-03T11:34:23.156Z,13.51
2018-10-03T11:36:52.440Z,13.48
2018-10-03T11:39:21.505Z,13.71
2018-10-03T11:41:50.651Z,13.96
2018-10-03T11:44:20.281Z,13.85
2018-10-03T11:46:49.486Z,14.03
2018-10-03T11:49:19.399Z,13.94
2018-10-03T11:51:48.667Z,13.96
2018-10-03T11:54:18.209Z,13.88
2018-10-03T11:56:47.319Z,14.07
2018-10-03T11:59:16.501Z,13.91
2018-10-03T12:01:45.808Z,13.92
2018-10-03T12:04:14.945Z,14.14
2018-10-03T12:06:43.961Z,14.19
2018-10-03T12:09:14.015Z,14.08
2018-10-03T12:11:44.074Z,14.12
2018-10-03T12:14:13.373Z,14.11
2018-10-03T12:16:44.053Z,14.25
2018-10-03T12:19:13.221Z,14.17
2018-10-03T12:21:43.537Z,14.26
2018-10-03T12:24:12.565Z,14.10
2018-10-03T12:26:41.791Z,14.09
2018-10-03T12:29:11.642Z,14.11
2018-10-03T12:31:40.793Z,14.06
2018-10-03T12:34:10.041Z,14.12
2018-10-03T12:36:40.435Z,14.13
2018-10-03T12:39:13.227Z,14.27
2018-10-03T12:41:44.009Z,14.32
2018-10-03T12:44:13.248Z,14.18
2018-10-03T12:46:42.412Z,14.21
2018-10-03T12:49:11.624Z,14.20
2018-10-03T12:51:40.816Z,14.21
2018-10-03T12:54:09.858Z,14.28
2018-10-03T12:56:39.179Z,14.14
2018-10-03T12:59:08.385Z,14.16
2018-10-03T13:01:37.559Z,13.84
2018-10-03T13:04:06.847Z,13.98
2018-10-03T13:06:36.485Z,13.92
2018-10-03T13:09:09.524Z,13.75
2018-10-03T13:11:38.751Z,13.72
2018-10-03T13:14:08.187Z,13.56
2018-10-03T13:16:37.495Z,13.53
2018-10-03T13:19:06.588Z,13.42
2018-10-03T13:21:37.596Z,13.24
2018-10-03T13:24:08.138Z,13.44
2018-10-03T13:26:37.915Z,13.57
2018-10-03T13:29:07.275Z,13.54
2018-10-03T13:31:36.575Z,13.53
2018-10-03T13:34:05.812Z,13.34
2018-10-03T13:36:35.162Z,13.35
2018-10-03T13:39:05.333Z,13.41
2018-10-03T13:41:34.666Z,13.43
2018-10-03T13:44:03.817Z,13.28
2018-10-03T13:46:33.671Z,13.54
2018-10-03T13:49:02.719Z,13.48
2018-10-03T13:51:31.876Z,13.45
2018-10-03T13:54:01.334Z,13.36
2018-10-03T13:56:30.480Z,13.46
2018-10-03T13:58:59.831Z,13.35
2018-10-03T14:01:31.198Z,13.46
2018-10-03T14:04:00.592Z,13.58
2018-10-03T14:06:29.778Z,13.41
2018-10-03T14:08:59.276Z,13.47
2018-10-03T14:11:28.483Z,13.49
2018-10-03T14:13:57.677Z,13.43
2018-10-03T14:16:26.836Z,13.26
2018-10-03T14:18:55.978Z,13.08
2018-10-03T14:21:25.138Z,13.26
2018-10-03T14:23:58.547Z,12.94
2018-10-03T14:26:28.923Z,12.84
2018-10-03T14:28:59.467Z,12.96
2018-10-03T14:31:33.390Z,13.10
2018-10-03T14:34:02.550Z,13.11
2018-10-03T14:36:31.669Z,13.07
2018-10-03T14:39:00.761Z,13.33
2018-10-03T14:41:30.148Z,13.40
2018-10-03T14:43:59.570Z,13.26
2018-10-03T14:46:28.947Z,13.25
2018-10-03T14:48:59.293Z,13.40
2018-10-03T14:51:29.299Z,13.44
2018-10-03T14:53:58.334Z,13.19
2018-10-03T14:56:27.809Z,13.25
2018-10-03T14:58:57.648Z,13.20
2018-10-03T15:01:27.211Z,13.13
2018-10-03T15:03:56.661Z,13.11
2018-10-03T15:06:26.938Z,13.12
2018-10-03T15:08:56.341Z,13.15
2018-10-03T15:11:25.769Z,13.16
2018-10-03T15:13:55.463Z,13.10
2018-10-03T15:16:25.162Z,13.14
2018-10-03T15:18:54.282Z,13.11
2018-10-03T15:21:23.337Z,12.98
2018-10-03T15:23:52.535Z,13.00
2018-10-03T15:26:21.633Z,13.02
2018-10-03T15:28:50.763Z,12.98
2018-10-03T15:31:21.255Z,13.00
2018-10-03T15:33:50.812Z,12.94
2018-10-03T15:36:26.317Z,12.79
2018-10-03T15:38:56.117Z,12.84
2018-10-03T15:41:25.832Z,12.83
2018-10-03T15:43:55.448Z,12.81
2018-10-03T15:46:25.187Z,12.89
2018-10-03T15:48:54.577Z,12.84
2018-10-03T15:51:23.779Z,12.78
2018-10-03T15:53:52.850Z,12.71
2018-10-03T15:56:21.944Z,12.65
2018-10-03T15:58:51.974Z,12.66
2018-10-03T16:01:21.036Z,12.58
2018-10-03T16:03:50.136Z,12.64
2018-10-03T16:06:19.225Z,12.63
2018-10-03T16:08:48.272Z,12.57
2018-10-03T16:11:17.962Z,12.94
2018-10-03T16:13:47.008Z,12.64
2018-10-03T16:16:16.753Z,12.60
2018-10-03T16:18:47.018Z,12.46
2018-10-03T16:21:16.112Z,12.46
2018-10-03T16:23:46.405Z,12.44
2018-10-03T16:26:15.833Z,12.32
2018-10-03T16:28:44.956Z,12.28
2018-10-03T16:31:14.177Z,12.19
2018-10-03T16:33:43.298Z,12.23
2018-10-03T16:36:12.559Z,12.25
2018-10-03T16:38:42.828Z,12.12
2018-10-03T16:41:13.571Z,12.23
2018-10-03T16:43:43.852Z,12.24
2018-10-03T16:46:14.596Z,12.26
2018-10-03T16:48:43.831Z,12.19
2018-10-03T16:51:12.871Z,12.06
2018-10-03T16:53:41.982Z,12.03
2018-10-03T16:56:12.023Z,12.02
2018-10-03T16:58:41.094Z,12.00
2018-10-03T17:01:10.399Z,11.93
2018-10-03T17:03:39.616Z,12.16
2018-10-03T17:06:08.788Z,12.00
2018-10-03T17:08:37.857Z,11.94
2018-10-03T17:11:08.099Z,11.87
2018-10-03T17:13:46.652Z,11.89
2018-10-03T17:16:15.779Z,11.79
2018-10-03T17:18:44.842Z,11.81
2018-10-03T17:21:14.129Z,11.76
2018-10-03T17:23:43.262Z,11.76
2018-10-03T17:26:12.690Z,11.66
2018-10-03T17:28:42.077Z,11.64
2018-10-03T17:31:11.132Z,11.72
2018-10-03T17:33:40.531Z,11.67
2018-10-03T17:36:09.708Z,11.49
2018-10-03T17:38:38.815Z,11.68
2018-10-03T17:41:08.175Z,11.77
2018-10-03T17:43:37.256Z,11.82
2018-10-03T17:46:06.821Z,11.78
2018-10-03T17:48:38.189Z,12.02
2018-10-03T17:51:07.489Z,12.02
2018-10-03T17:53:36.595Z,11.80
2018-10-03T17:56:06.807Z,11.71
2018-10-03T17:58:36.024Z,11.83
2018-10-03T18:01:05.421Z,11.76
2018-10-03T18:03:34.525Z,11.60
2018-10-03T18:06:04.509Z,11.62
2018-10-03T18:08:37.644Z,11.43
2018-10-03T18:11:07.054Z,11.40
2018-10-03T18:13:36.329Z,11.77
2018-10-03T18:16:06.609Z,11.56
2018-10-03T18:18:36.937Z,11.35
2018-10-03T18:21:06.298Z,11.18
2018-10-03T18:23:35.561Z,11.15
2018-10-03T18:26:04.819Z,11.13
2018-10-03T18:28:34.367Z,11.14
2018-10-03T18:31:03.658Z,11.14
2018-10-03T18:33:35.237Z,10.99
2018-10-03T18:36:04.457Z,11.26
2018-10-03T18:38:34.193Z,11.38
2018-10-03T18:41:03.464Z,11.23
2018-10-03T18:43:32.767Z,11.25
2018-10-03T18:46:05.124Z,11.22
2018-10-03T18:48:34.661Z,11.15
2018-10-03T18:51:05.935Z,11.20
2018-10-03T18:53:35.947Z,11.15
2018-10-03T18:56:07.212Z,11.15
2018-10-03T18:58:38.238Z,11.05
2018-10-03T19:01:07.430Z,11.02
2018-10-03T19:03:36.596Z,11.05
2018-10-03T19:06:06.136Z,11.08
2018-10-03T19:08:35.800Z,10.83
2018-10-03T19:11:06.116Z,11.15
2018-10-03T19:13:36.304Z,11.17
2018-10-03T19:16:07.331Z,11.17
2018-10-03T19:18:38.726Z,11.19
2018-10-03T19:21:08.989Z,11.21
2018-10-03T19:23:38.263Z,11.14
2018-10-03T19:26:07.615Z,11.19
2018-10-03T19:28:37.001Z,11.08
2018-10-03T19:31:06.959Z,11.05
2018-10-03T19:33:36.387Z,11.00
2018-10-03T19:36:05.611Z,10.97
2018-10-03T19:38:36.155Z,11.06
2018-10-03T19:41:06.643Z,11.08
2018-10-03T19:43:36.036Z,11.09
2018-10-03T19:46:05.430Z,10.97
2018-10-03T19:48:34.847Z,11.00
2018-10-03T19:51:04.072Z,11.04
2018-10-03T19:53:34.772Z,10.98
2018-10-03T19:56:04.663Z,11.00
2018-10-03T19:58:33.821Z,10.97
2018-10-03T20:01:02.852Z,10.98
2018-10-03T20:03:32.041Z,10.85
2018-10-03T20:06:01.066Z,10.84
2018-10-03T20:08:30.232Z,10.81
2018-10-03T20:10:59.289Z,10.79
2018-10-03T20:13:28.351Z,10.74
2018-10-03T20:15:57.469Z,10.74
2018-10-03T20:18:26.515Z,10.79
2018-10-03T20:20:55.596Z,10.76
2018-10-03T20:23:24.807Z,10.77
2018-10-03T20:25:53.875Z,10.82
2018-10-03T20:28:22.895Z,10.96
2018-10-03T20:30:52.014Z,10.88
2018-10-03T20:33:21.156Z,10.83
2018-10-03T20:35:50.220Z,10.80
2018-10-03T20:38:19.324Z,10.67
2018-10-03T20:40:48.439Z,10.59
2018-10-03T20:43:17.680Z,10.43
2018-10-03T20:45:46.775Z,10.39
2018-10-03T20:48:15.996Z,10.42
2018-10-03T20:50:44.999Z,10.47
2018-10-03T20:53:14.046Z,10.56
2018-10-03T20:55:43.037Z,10.65
2018-10-03T20:58:12.175Z,10.45
2018-10-03T21:00:41.223Z,10.40
2018-10-03T21:03:10.365Z,10.33
2018-10-03T21:05:39.383Z,10.18
2018-10-03T21:08:08.482Z,10.05
2018-10-03T21:10:37.661Z,10.05
2018-10-03T21:13:06.798Z,10.00
2018-10-03T21:15:35.866Z,10.02
2018-10-03T21:18:04.985Z,10.05
2018-10-03T21:20:34.056Z,10.05
2018-10-03T21:23:03.196Z,10.07
2018-10-03T21:25:32.256Z,10.06
2018-10-03T21:28:01.274Z,10.08
2018-10-03T21:30:30.369Z,10.11
2018-10-03T21:32:59.397Z,10.09
2018-10-03T21:35:28.480Z,10.04
2018-10-03T21:37:57.637Z,9.99
2018-10-03T21:40:27.793Z,9.97
2018-10-03T21:42:57.852Z,9.97
2018-10-03T21:45:26.862Z,10.00
2018-10-03T21:47:55.945Z,10.03
2018-10-03T21:50:26.145Z,10.02
2018-10-03T21:52:56.139Z,10.01
2018-10-03T21:55:26.380Z,10.08
2018-10-03T21:57:55.481Z,10.04
2018-10-03T22:00:28.621Z,9.99
2018-10-03T22:02:57.798Z,10.02
2018-10-03T22:05:27.151Z,10.05
2018-10-03T22:07:56.246Z,10.02
2018-10-03T22:10:25.952Z,9.96
2018-10-03T22:12:54.963Z,9.94
2018-10-03T22:15:25.168Z,9.95
2018-10-03T22:17:54.412Z,9.96
2018-10-03T22:20:23.743Z,9.92
2018-10-03T22:22:53.015Z,9.79
2018-10-03T22:25:22.172Z,9.79
2018-10-03T22:27:51.320Z,9.77
2018-10-03T22:30:20.456Z,9.77
2018-10-03T22:32:49.628Z,9.70
2018-10-03T22:35:19.698Z,9.68
2018-10-03T22:37:48.948Z,9.70
2018-10-03T22:40:19.142Z,9.70
2018-10-03T22:42:48.276Z,9.69
2018-10-03T22:45:17.340Z,9.71
2018-10-03T22:47:46.457Z,9.69
2018-10-03T22:50:15.546Z,9.70
2018-10-03T22:52:45.400Z,9.66
2018-10-03T22:55:14.408Z,9.66
2018-10-03T22:57:43.443Z,9.65
2018-10-03T23:00:12.537Z,9.61
2018-10-03T23:02:41.594Z,9.59
2018-10-03T23:05:11.359Z,9.65
2018-10-03T23:07:40.438Z,9.60
2018-10-03T23:10:09.840Z,9.54
2018-10-03T23:12:38.976Z,9.56
2018-10-03T23:15:08.040Z,9.51
2018-10-03T23:17:37.233Z,9.50
2018-10-03T23:20:06.388Z,9.48
2018-10-03T23:22:35.435Z,9.41
2018-10-03T23:25:04.630Z,9.35
2018-10-03T23:27:33.654Z,9.43
2018-10-03T23:30:02.823Z,9.49
2018-10-03T23:32:31.822Z,9.47
2018-10-03T23:35:00.968Z,9.41
2018-10-03T23:37:29.986Z,9.43
2018-10-03T23:39:59.199Z,9.44
2018-10-03T23:42:28.394Z,9.36
2018-10-03T23:44:57.396Z,9.26
2018-10-03T23:47:26.472Z,9.23
2018-10-03T23:49:55.591Z,9.23
2018-10-03T23:52:24.642Z,9.17
2018-10-03T23:54:53.689Z,9.14
2018-10-03T23:57:22.824Z,9.05
2018-10-03T23:59:52.017Z,9.08
